Time;durP1;ratioP1;P1;durP2;ratioP2;P2;SDS_P1;SDS_P2;PMS_P1;PMS_P2;Temp;Humidity;BMP_temperature;BMP_pressure;BME280_temperature;BME280_humidity;BME280_pressure;Samples;Min_cycle;Max_cycle;Signal;HPM_P1;HPM_P2
2023/04/17 00:01:41;;;;;;;23.52;15.85;;;7.70;99.90;;;;;;5048648;28;20397;-81
2023/04/17 00:04:11;;;;;;;21.83;14.98;;;7.70;99.90;;;;;;5051505;28;20021;-81
2023/04/17 00:06:37;;;;;;;20.33;13.50;;;7.70;99.90;;;;;;5036342;28;20044;-81
2023/04/17 00:09:03;;;;;;;20.77;14.18;;;7.70;99.90;;;;;;5043306;28;20397;-81
2023/04/17 00:11:34;;;;;;;22.85;13.80;;;7.70;99.90;;;;;;5050957;28;20029;-80
2023/04/17 00:13:59;;;;;;;18.90;13.38;;;7.70;99.90;;;;;;5036608;28;20497;-81
2023/04/17 00:16:26;;;;;;;20.33;12.73;;;7.70;99.90;;;;;;5045637;28;20037;-81
2023/04/17 00:18:52;;;;;;;21.45;15.15;;;7.70;99.90;;;;;;5044242;28;20067;-80
2023/04/17 00:21:18;;;;;;;17.65;12.60;;;7.70;99.90;;;;;;5048795;28;20036;-81
2023/04/17 00:23:44;;;;;;;20.08;13.23;;;7.60;99.90;;;;;;5046876;28;20025;-81
2023/04/17 00:26:10;;;;;;;22.30;13.95;;;7.60;99.90;;;;;;5036051;28;20025;-81
2023/04/17 00:28:36;;;;;;;18.92;12.95;;;7.70;99.90;;;;;;5042438;28;20120;-81
2023/04/17 00:31:03;;;;;;;22.15;14.68;;;7.60;99.90;;;;;;5033790;28;20041;-81
2023/04/17 00:33:30;;;;;;;16.60;11.93;;;7.60;99.90;;;;;;5061629;28;20040;-81
2023/04/17 00:35:56;;;;;;;20.02;13.05;;;7.60;99.90;;;;;;5046454;28;20087;-81
2023/04/17 00:38:21;;;;;;;17.30;13.43;;;7.60;99.90;;;;;;5043611;28;20029;-81
2023/04/17 00:40:47;;;;;;;18.98;13.27;;;7.60;99.90;;;;;;5044696;28;20017;-80
2023/04/17 00:43:13;;;;;;;29.40;15.13;;;7.60;99.90;;;;;;5052899;28;20031;-81
2023/04/17 00:45:40;;;;;;;22.63;13.43;;;7.60;99.90;;;;;;5051956;28;20459;-80
2023/04/17 00:48:08;;;;;;;23.60;14.15;;;7.60;99.90;;;;;;5049379;28;20052;-80
2023/04/17 00:50:34;;;;;;;22.60;14.32;;;7.60;99.90;;;;;;5048640;28;20025;-81
2023/04/17 00:53:01;;;;;;;25.00;14.82;;;7.50;99.90;;;;;;5047317;28;20116;-81
2023/04/17 00:55:31;;;;;;;25.77;16.75;;;7.50;99.90;;;;;;5043487;28;20271;-81
2023/04/17 00:57:57;;;;;;;30.48;15.48;;;7.60;99.90;;;;;;5042087;28;20082;-81
2023/04/17 01:00:23;;;;;;;22.60;15.05;;;7.60;99.90;;;;;;5056973;28;20037;-80
2023/04/17 01:02:49;;;;;;;23.02;15.55;;;7.50;99.90;;;;;;5058405;28;20008;-80
2023/04/17 01:05:14;;;;;;;28.38;16.65;;;7.50;99.90;;;;;;5049743;28;20036;-81
2023/04/17 01:07:41;;;;;;;27.88;16.83;;;7.50;99.90;;;;;;5051860;28;20045;-81
2023/04/17 01:10:08;;;;;;;28.33;17.20;;;7.50;99.90;;;;;;5039314;28;20114;-81
2023/04/17 01:12:35;;;;;;;21.10;14.38;;;7.40;99.90;;;;;;5049291;28;20509;-81
2023/04/17 01:15:01;;;;;;;32.28;18.65;;;7.40;99.90;;;;;;5048331;28;20114;-81
2023/04/17 01:17:26;;;;;;;28.88;16.85;;;7.40;99.90;;;;;;5043058;28;20033;-80
2023/04/17 01:19:53;;;;;;;24.17;16.75;;;7.40;99.90;;;;;;5045494;28;20036;-81
2023/04/17 01:22:19;;;;;;;24.30;16.88;;;7.40;99.90;;;;;;5049122;28;20055;-81
2023/04/17 01:24:50;;;;;;;25.80;17.58;;;7.40;99.90;;;;;;5045813;28;20029;-80
2023/04/17 01:27:15;;;;;;;27.33;18.13;;;7.40;99.90;;;;;;5055058;28;20487;-81
2023/04/17 01:29:42;;;;;;;26.73;18.00;;;7.30;99.90;;;;;;5053319;28;20166;-80
2023/04/17 01:32:08;;;;;;;28.55;17.88;;;7.40;99.90;;;;;;5048879;28;20085;-80
2023/04/17 01:34:34;;;;;;;27.50;15.65;;;7.30;99.90;;;;;;5050475;28;20037;-80
2023/04/17 01:37:00;;;;;;;28.98;17.13;;;7.30;99.90;;;;;;5051347;28;20071;-81
2023/04/17 01:39:26;;;;;;;26.52;17.08;;;7.20;99.90;;;;;;5047561;28;20028;-81
2023/04/17 01:41:53;;;;;;;23.92;17.80;;;7.30;99.90;;;;;;5050942;28;20120;-80
2023/04/17 01:44:19;;;;;;;30.88;17.50;;;7.20;99.90;;;;;;5043790;28;20030;-81
2023/04/17 01:46:44;;;;;;;25.50;16.60;;;7.10;99.90;;;;;;5054283;28;20017;-81
2023/04/17 01:49:11;;;;;;;34.55;18.20;;;7.10;99.90;;;;;;5056620;28;20082;-81
2023/04/17 01:51:36;;;;;;;23.73;16.40;;;7.10;99.90;;;;;;5055075;28;20020;-81
2023/04/17 01:54:02;;;;;;;27.92;19.15;;;7.10;99.90;;;;;;5048811;28;20440;-81
2023/04/17 01:56:27;;;;;;;29.38;18.17;;;7.10;99.90;;;;;;5042903;28;20477;-80
2023/04/17 01:58:53;;;;;;;28.95;17.52;;;7.00;99.90;;;;;;5041797;28;20049;-80
2023/04/17 02:01:19;;;;;;;27.55;17.92;;;7.00;99.90;;;;;;5052297;28;20020;-80
2023/04/17 02:03:45;;;;;;;29.65;16.70;;;7.00;99.90;;;;;;5058915;28;20031;-80
2023/04/17 02:06:11;;;;;;;30.02;18.13;;;6.90;99.90;;;;;;5052311;28;20025;-81
2023/04/17 02:08:37;;;;;;;27.67;16.95;;;7.00;99.90;;;;;;5049020;28;20451;-81
2023/04/17 02:11:03;;;;;;;29.77;19.30;;;6.90;99.90;;;;;;5051925;28;20045;-81
2023/04/17 02:13:28;;;;;;;33.60;20.88;;;6.90;99.90;;;;;;5046781;28;20382;-80
2023/04/17 02:15:54;;;;;;;31.60;19.27;;;6.90;99.90;;;;;;5040794;28;20071;-81
2023/04/17 02:18:21;;;;;;;32.38;17.73;;;6.90;99.90;;;;;;5052129;28;20044;-81
2023/04/17 02:20:46;;;;;;;25.60;17.13;;;6.90;99.90;;;;;;5061893;28;20032;-81
2023/04/17 02:23:13;;;;;;;26.95;17.63;;;6.90;99.90;;;;;;5040932;28;20029;-81
2023/04/17 02:25:39;;;;;;;31.23;20.23;;;6.80;99.90;;;;;;5026688;28;20022;-81
2023/04/17 02:28:06;;;;;;;38.17;18.48;;;6.80;99.90;;;;;;5034881;28;20203;-80
2023/04/17 02:30:31;;;;;;;30.55;19.15;;;6.90;99.90;;;;;;5051902;28;20012;-80
2023/04/17 02:32:57;;;;;;;33.13;18.33;;;6.80;99.90;;;;;;5044646;28;20509;-80
2023/04/17 02:35:26;;;;;;;32.05;19.05;;;6.90;99.90;;;;;;5052050;28;20569;-81
2023/04/17 02:37:52;;;;;;;32.20;18.65;;;6.90;99.90;;;;;;5043355;28;20048;-80
2023/04/17 02:40:18;;;;;;;31.92;19.92;;;6.80;99.90;;;;;;5050095;28;20058;-80
2023/04/17 02:42:44;;;;;;;28.85;17.45;;;6.80;99.90;;;;;;5043286;28;20068;-80
2023/04/17 02:45:10;;;;;;;35.15;19.08;;;6.80;99.90;;;;;;5036323;28;20033;-80
2023/04/17 02:47:36;;;;;;;35.90;19.70;;;6.70;99.90;;;;;;5039799;28;23516;-80
2023/04/17 02:50:03;;;;;;;28.50;18.48;;;6.70;99.90;;;;;;5041882;28;20029;-81
2023/04/17 02:52:29;;;;;;;30.98;18.90;;;6.70;99.90;;;;;;5045648;28;20043;-81
2023/04/17 02:54:55;;;;;;;28.30;18.63;;;6.70;99.90;;;;;;5048950;28;20037;-81
2023/04/17 02:57:25;;;;;;;34.92;20.55;;;6.70;99.90;;;;;;5039784;28;20543;-80
2023/04/17 02:59:52;;;;;;;28.35;20.40;;;6.70;99.90;;;;;;5050487;28;20112;-81
2023/04/17 03:02:21;;;;;;;31.30;20.20;;;6.70;99.90;;;;;;5047209;28;20012;-80
2023/04/17 03:04:50;;;;;;;31.70;21.08;;;6.70;99.90;;;;;;5046318;28;20025;-81
2023/04/17 03:07:18;;;;;;;31.48;18.58;;;6.70;99.90;;;;;;5045246;28;20041;-80
2023/04/17 03:09:46;;;;;;;31.20;19.38;;;6.70;99.90;;;;;;5048055;28;20020;-81
2023/04/17 03:12:15;;;;;;;31.40;20.15;;;6.70;99.90;;;;;;5044698;28;20065;-80
2023/04/17 03:14:42;;;;;;;30.73;18.27;;;6.60;99.90;;;;;;5037958;28;20154;-81
2023/04/17 03:17:10;;;;;;;36.70;22.00;;;6.70;99.90;;;;;;5043955;28;20031;-80
2023/04/17 03:19:36;;;;;;;37.58;20.42;;;6.60;99.90;;;;;;5053640;28;20056;-81
2023/04/17 03:22:03;;;;;;;31.35;20.42;;;6.70;99.90;;;;;;5047053;28;20025;-81
2023/04/17 03:24:30;;;;;;;33.72;20.83;;;6.60;99.90;;;;;;5041019;28;20024;-80
2023/04/17 03:26:56;;;;;;;27.40;19.35;;;6.70;99.90;;;;;;5042591;28;20449;-80
2023/04/17 03:29:22;;;;;;;34.70;22.08;;;6.60;99.90;;;;;;5046495;28;20025;-81
2023/04/17 03:31:47;;;;;;;31.73;20.30;;;6.60;99.90;;;;;;5032749;28;20102;-81
2023/04/17 03:34:13;;;;;;;36.78;23.67;;;6.60;99.90;;;;;;5046442;28;20354;-81
2023/04/17 03:36:39;;;;;;;37.25;21.27;;;6.60;99.90;;;;;;5048979;28;20466;-80
2023/04/17 03:39:04;;;;;;;30.50;20.52;;;6.60;99.90;;;;;;5050286;28;20477;-81
2023/04/17 03:41:30;;;;;;;33.03;21.42;;;6.60;99.90;;;;;;5044900;28;20478;-80
2023/04/17 03:43:56;;;;;;;34.97;22.02;;;6.60;99.90;;;;;;5042384;28;20079;-81
2023/04/17 03:46:21;;;;;;;27.30;18.63;;;6.60;99.90;;;;;;5040944;28;20283;-80
2023/04/17 03:48:47;;;;;;;31.38;20.35;;;6.60;99.90;;;;;;5049700;28;20017;-80
2023/04/17 03:51:14;;;;;;;32.28;20.63;;;6.50;99.90;;;;;;5046499;28;20444;-80
2023/04/17 03:53:40;;;;;;;37.97;23.20;;;6.50;99.90;;;;;;5047154;28;20036;-81
2023/04/17 03:56:09;;;;;;;36.47;21.48;;;6.60;99.90;;;;;;5040753;28;20278;-80
2023/04/17 03:58:34;;;;;;;31.60;21.05;;;6.60;99.90;;;;;;5045545;28;20028;-81
2023/04/17 04:01:00;;;;;;;34.72;22.77;;;6.60;99.90;;;;;;5046999;28;20032;-81
2023/04/17 04:03:27;;;;;;;40.72;23.05;;;6.50;99.90;;;;;;5050141;28;20062;-81
2023/04/17 04:05:53;;;;;;;36.38;22.42;;;6.60;99.90;;;;;;5051935;28;20033;-81
2023/04/17 04:08:18;;;;;;;32.88;21.88;;;6.60;99.90;;;;;;5043676;28;20029;-81
2023/04/17 04:10:44;;;;;;;33.75;20.33;;;6.60;99.90;;;;;;5053704;28;20491;-81
2023/04/17 04:13:11;;;;;;;34.15;22.50;;;6.50;99.90;;;;;;5049506;28;20040;-80
2023/04/17 04:15:37;;;;;;;37.05;23.00;;;6.50;99.90;;;;;;5051608;28;20044;-80
2023/04/17 04:18:03;;;;;;;36.58;20.50;;;6.50;99.90;;;;;;5051723;28;20657;-81
2023/04/17 04:20:31;;;;;;;35.17;23.65;;;6.50;99.90;;;;;;5047918;28;20097;-80
2023/04/17 04:22:58;;;;;;;39.50;23.83;;;6.50;99.90;;;;;;5046015;28;20121;-81
2023/04/17 04:25:24;;;;;;;36.83;23.42;;;6.50;99.90;;;;;;5054367;28;20036;-80
2023/04/17 04:27:50;;;;;;;37.70;23.05;;;6.50;99.90;;;;;;5046520;28;20107;-81
2023/04/17 04:30:16;;;;;;;38.90;24.25;;;6.50;99.90;;;;;;5048685;28;20142;-80
2023/04/17 04:32:44;;;;;;;31.38;20.35;;;6.50;99.90;;;;;;5051429;28;20027;-80
2023/04/17 04:35:10;;;;;;;47.22;25.23;;;6.40;99.90;;;;;;5046435;28;20032;-81
2023/04/17 04:37:36;;;;;;;33.72;22.52;;;6.50;99.90;;;;;;5049504;28;20037;-80
2023/04/17 04:40:09;;;;;;;36.05;22.30;;;6.50;99.90;;;;;;5055388;28;20044;-80
2023/04/17 04:42:36;;;;;;;30.60;21.27;;;6.40;99.90;;;;;;5048559;28;20417;-80
2023/04/17 04:45:03;;;;;;;30.92;21.63;;;6.40;99.90;;;;;;5051872;28;20037;-80
2023/04/17 04:47:29;;;;;;;28.60;19.65;;;6.40;99.90;;;;;;5052245;28;20025;-80
2023/04/17 04:49:54;;;;;;;40.90;23.48;;;6.40;99.90;;;;;;5042812;28;20032;-80
2023/04/17 04:52:20;;;;;;;45.80;26.17;;;6.40;99.90;;;;;;5046061;28;20028;-80
2023/04/17 04:54:49;;;;;;;40.25;25.33;;;6.40;99.90;;;;;;5046446;28;20036;-80
2023/04/17 04:57:15;;;;;;;41.78;24.98;;;6.50;99.90;;;;;;5044529;28;20478;-80
2023/04/17 04:59:40;;;;;;;44.22;23.98;;;6.40;99.90;;;;;;5051956;28;20028;-81
2023/04/17 05:02:06;;;;;;;41.63;25.13;;;6.40;99.90;;;;;;5053633;28;20033;-80
2023/04/17 05:04:31;;;;;;;45.13;24.98;;;6.40;99.90;;;;;;5047822;28;20269;-80
2023/04/17 05:06:57;;;;;;;42.05;23.13;;;6.40;99.90;;;;;;5047932;28;20021;-81
2023/04/17 05:09:23;;;;;;;38.55;23.58;;;6.40;99.90;;;;;;5050723;28;20029;-80
2023/04/17 05:11:49;;;;;;;35.95;22.50;;;6.40;99.90;;;;;;5053547;28;20025;-80
2023/04/17 05:14:14;;;;;;;38.55;24.38;;;6.40;99.90;;;;;;5048002;28;20422;-80
2023/04/17 05:16:40;;;;;;;44.65;24.70;;;6.30;99.90;;;;;;5047746;28;20032;-80
2023/04/17 05:19:08;;;;;;;54.28;25.85;;;6.30;99.90;;;;;;5051562;28;20044;-80
2023/04/17 05:21:34;;;;;;;43.42;24.58;;;6.30;99.90;;;;;;5058702;28;20020;-80
2023/04/17 05:23:59;;;;;;;41.38;23.92;;;6.40;99.90;;;;;;5055791;28;20032;-80
2023/04/17 05:26:25;;;;;;;40.78;24.25;;;6.30;99.90;;;;;;5045338;28;20475;-80
2023/04/17 05:28:51;;;;;;;39.70;23.63;;;6.30;99.90;;;;;;5033295;28;20354;-80
2023/04/17 05:31:17;;;;;;;41.20;24.25;;;6.30;99.90;;;;;;5040853;28;20029;-80
2023/04/17 05:33:42;;;;;;;40.55;25.05;;;6.40;99.90;;;;;;5045401;28;20576;-80
2023/04/17 05:36:08;;;;;;;40.22;22.48;;;6.40;99.90;;;;;;5043805;28;20053;-81
2023/04/17 05:38:34;;;;;;;44.97;24.67;;;6.30;99.90;;;;;;5043528;28;20025;-80
2023/04/17 05:41:00;;;;;;;37.55;22.35;;;6.30;99.90;;;;;;5044515;28;20075;-81
2023/04/17 05:43:26;;;;;;;39.17;23.98;;;6.40;99.90;;;;;;5045132;28;20029;-81
2023/04/17 05:45:52;;;;;;;42.13;24.77;;;6.40;99.90;;;;;;5041589;28;20043;-80
2023/04/17 05:48:17;;;;;;;42.97;24.42;;;6.40;99.90;;;;;;5033980;28;20029;-80
2023/04/17 05:50:43;;;;;;;39.15;23.80;;;6.40;99.90;;;;;;5041492;28;20481;-80
2023/04/17 05:53:09;;;;;;;38.63;23.70;;;6.40;99.90;;;;;;5044916;28;20033;-81
2023/04/17 05:55:35;;;;;;;39.10;23.13;;;6.30;99.90;;;;;;5043630;28;20033;-81
2023/04/17 05:58:01;;;;;;;42.20;24.25;;;6.40;99.90;;;;;;5043030;28;20426;-80
2023/04/17 06:00:27;;;;;;;36.47;23.27;;;6.40;99.90;;;;;;5031496;28;20024;-81
2023/04/17 06:02:53;;;;;;;40.50;22.95;;;6.30;99.90;;;;;;5043612;28;20048;-81
2023/04/17 06:05:20;;;;;;;38.85;24.05;;;6.40;99.90;;;;;;5039850;28;20041;-81
2023/04/17 06:07:45;;;;;;;42.00;25.13;;;6.30;99.90;;;;;;5043180;28;20032;-80
2023/04/17 06:10:11;;;;;;;48.63;24.55;;;6.40;99.90;;;;;;5043459;28;20029;-80
2023/04/17 06:12:37;;;;;;;39.42;23.10;;;6.40;99.90;;;;;;5042764;28;20496;-81
2023/04/17 06:15:03;;;;;;;37.42;21.83;;;6.40;99.90;;;;;;5046971;28;20504;-81
2023/04/17 06:17:30;;;;;;;44.15;24.77;;;6.40;99.90;;;;;;5047808;28;20060;-81
2023/04/17 06:19:56;;;;;;;37.97;23.48;;;6.40;99.90;;;;;;5044780;28;20330;-80
2023/04/17 06:22:21;;;;;;;41.85;23.50;;;6.40;99.90;;;;;;5052297;28;20052;-81
2023/04/17 06:24:47;;;;;;;44.67;23.60;;;6.40;99.90;;;;;;5034802;28;20021;-81
2023/04/17 06:27:12;;;;;;;36.78;23.10;;;6.40;99.90;;;;;;5030373;28;20025;-80
2023/04/17 06:29:39;;;;;;;41.58;22.73;;;6.40;99.90;;;;;;5050663;28;20040;-80
2023/04/17 06:32:06;;;;;;;35.83;23.13;;;6.50;99.90;;;;;;5037031;28;20067;-80
2023/04/17 06:34:32;;;;;;;43.38;23.88;;;6.50;99.90;;;;;;5051032;28;20028;-81
2023/04/17 06:36:59;;;;;;;47.65;24.88;;;6.50;99.90;;;;;;5038448;28;20056;-81
2023/04/17 06:39:25;;;;;;;41.10;23.30;;;6.50;99.90;;;;;;5039253;28;20033;-80
2023/04/17 06:41:50;;;;;;;36.88;22.00;;;6.50;99.90;;;;;;5041019;28;20528;-81
2023/04/17 06:44:17;;;;;;;38.90;22.15;;;6.60;99.90;;;;;;5034116;28;20021;-81
2023/04/17 06:46:42;;;;;;;46.63;22.63;;;6.60;99.90;;;;;;5044238;28;20044;-80
2023/04/17 06:49:08;;;;;;;40.88;22.73;;;6.60;99.90;;;;;;5046444;28;20683;-81
2023/04/17 06:51:34;;;;;;;45.20;24.42;;;6.60;99.90;;;;;;5039411;28;20032;-81
2023/04/17 06:53:59;;;;;;;46.28;23.83;;;6.70;99.90;;;;;;5037387;28;20120;-80
2023/04/17 06:56:25;;;;;;;38.97;22.55;;;6.70;99.90;;;;;;5039212;28;20064;-80
2023/04/17 06:58:52;;;;;;;41.38;23.70;;;6.70;99.90;;;;;;5059560;28;20463;-80
2023/04/17 07:01:18;;;;;;;54.60;23.15;;;6.70;99.90;;;;;;5033227;28;20506;-80
2023/04/17 07:03:45;;;;;;;38.13;22.80;;;6.70;99.90;;;;;;5043250;28;20108;-80
2023/04/17 07:06:11;;;;;;;39.50;22.38;;;6.70;99.90;;;;;;5041586;28;20052;-81
2023/04/17 07:08:37;;;;;;;36.20;22.73;;;6.70;99.90;;;;;;5036467;28;20059;-80
2023/04/17 07:11:02;;;;;;;43.85;23.45;;;6.70;99.90;;;;;;5044875;28;20312;-80
2023/04/17 07:13:30;;;;;;;40.30;22.50;;;6.70;99.90;;;;;;5040001;28;20033;-80
2023/04/17 07:15:58;;;;;;;39.30;22.35;;;6.70;99.90;;;;;;5047290;28;20472;-81
2023/04/17 07:18:28;;;;;;;45.00;24.42;;;6.70;99.90;;;;;;5042652;28;20353;-80
2023/04/17 07:20:55;;;;;;;40.30;24.65;;;6.70;99.90;;;;;;5044667;28;20028;-80
2023/04/17 07:23:20;;;;;;;39.05;21.30;;;6.80;99.90;;;;;;5040317;28;20040;-80
2023/04/17 07:25:46;;;;;;;36.42;22.63;;;6.80;99.90;;;;;;5031906;28;20127;-82
2023/04/17 07:28:13;;;;;;;40.45;21.02;;;6.90;99.90;;;;;;5040060;28;20037;-80
2023/04/17 07:30:39;;;;;;;37.33;21.15;;;6.90;99.90;;;;;;5043559;28;20021;-80
2023/04/17 07:33:05;;;;;;;41.30;22.25;;;7.00;99.90;;;;;;5047339;28;20031;-80
2023/04/17 07:35:31;;;;;;;39.47;22.35;;;7.00;99.90;;;;;;5041344;28;20049;-80
2023/04/17 07:38:02;;;;;;;31.77;19.50;;;7.10;99.90;;;;;;5048869;28;20048;-80
2023/04/17 07:40:28;;;;;;;32.05;19.90;;;7.10;99.90;;;;;;5043416;28;20037;-80
2023/04/17 07:42:55;;;;;;;43.28;20.30;;;7.10;99.90;;;;;;5036958;28;20028;-87
2023/04/17 07:45:22;;;;;;;41.17;22.70;;;7.20;99.90;;;;;;5033793;28;20493;-79
2023/04/17 07:47:49;;;;;;;33.97;20.90;;;7.20;99.90;;;;;;5036469;28;20037;-80
2023/04/17 07:50:15;;;;;;;37.17;20.05;;;7.30;99.90;;;;;;5049199;28;20032;-80
2023/04/17 07:52:41;;;;;;;40.58;21.33;;;7.30;99.90;;;;;;5036169;28;20040;-80
2023/04/17 07:55:10;;;;;;;32.65;21.17;;;7.40;99.90;;;;;;5032905;28;20033;-79
2023/04/17 07:57:35;;;;;;;37.08;20.20;;;7.40;99.90;;;;;;5039090;28;20087;-80
2023/04/17 08:00:03;;;;;;;32.42;18.50;;;7.40;99.90;;;;;;5038171;28;20506;-80
2023/04/17 08:02:29;;;;;;;40.78;20.15;;;7.40;99.90;;;;;;5046277;28;20047;-79
2023/04/17 08:04:55;;;;;;;34.35;21.80;;;7.40;99.90;;;;;;5036841;28;20025;-80
2023/04/17 08:07:21;;;;;;;37.05;21.13;;;7.50;99.90;;;;;;5043390;28;20535;-80
2023/04/17 08:09:50;;;;;;;32.08;19.33;;;7.50;99.90;;;;;;5041125;28;20028;-81
2023/04/17 08:12:16;;;;;;;32.78;20.63;;;7.50;99.90;;;;;;5042541;28;20112;-80
2023/04/17 08:14:42;;;;;;;33.92;17.98;;;7.50;99.90;;;;;;5051757;28;20529;-80
2023/04/17 08:17:08;;;;;;;34.72;18.23;;;7.60;99.90;;;;;;5056248;28;20102;-80
2023/04/17 08:19:33;;;;;;;34.65;20.23;;;7.60;99.90;;;;;;5044107;28;20786;-80
2023/04/17 08:22:06;;;;;;;40.03;20.60;;;7.70;99.90;;;;;;5046587;28;20036;-80
2023/04/17 08:24:31;;;;;;;28.73;19.48;;;7.70;99.90;;;;;;5043560;28;20025;-80
2023/04/17 08:26:57;;;;;;;29.77;18.40;;;7.70;99.90;;;;;;5047633;28;20032;-80
2023/04/17 08:29:23;;;;;;;38.00;20.02;;;7.70;99.90;;;;;;5050498;28;20024;-80
2023/04/17 08:31:49;;;;;;;31.88;20.42;;;7.70;99.90;;;;;;5053640;28;20111;-80
2023/04/17 08:34:14;;;;;;;34.95;19.92;;;7.70;99.90;;;;;;5049947;28;20113;-80
2023/04/17 08:36:41;;;;;;;37.72;20.05;;;7.80;99.90;;;;;;5041806;28;20128;-80
2023/04/17 08:39:08;;;;;;;28.02;18.88;;;7.80;99.90;;;;;;5057541;28;20040;-80
2023/04/17 08:41:41;;;;;;;34.90;21.15;;;7.80;99.90;;;;;;5042981;28;20028;-80
2023/04/17 08:44:07;;;;;;;37.60;21.38;;;7.90;99.90;;;;;;5047238;28;20021;-80
2023/04/17 08:46:35;;;;;;;33.50;20.88;;;8.00;99.90;;;;;;5042696;28;20086;-80
2023/04/17 08:49:01;;;;;;;32.15;20.33;;;8.10;99.90;;;;;;5053648;28;20421;-80
2023/04/17 08:51:27;;;;;;;27.27;18.23;;;8.10;99.90;;;;;;5064292;28;20036;-80
2023/04/17 08:53:53;;;;;;;37.05;20.23;;;8.20;99.90;;;;;;5050192;28;20025;-80
2023/04/17 08:56:21;;;;;;;30.42;19.77;;;8.20;99.90;;;;;;5032808;28;20048;-80
2023/04/17 08:58:46;;;;;;;35.83;18.95;;;8.20;99.90;;;;;;5044894;28;20453;-80
2023/04/17 09:01:15;;;;;;;35.67;20.33;;;8.20;99.90;;;;;;5058569;28;20056;-80
2023/04/17 09:03:46;;;;;;;27.63;18.48;;;8.20;99.90;;;;;;5050953;28;20075;-80
2023/04/17 09:06:12;;;;;;;35.88;20.23;;;8.30;99.90;;;;;;5047703;28;20036;-80
2023/04/17 09:08:52;;;;;;;33.08;19.45;;;8.30;99.90;;;;;;5044387;28;20025;-79
2023/04/17 09:11:18;;;;;;;35.28;20.20;;;8.40;99.90;;;;;;5037941;28;20055;-79
2023/04/17 09:13:44;;;;;;;32.75;18.98;;;8.50;99.90;;;;;;5064613;28;20021;-80
2023/04/17 09:16:14;;;;;;;34.63;19.55;;;8.50;99.90;;;;;;5049919;28;20041;-80
2023/04/17 09:18:44;;;;;;;30.65;18.58;;;8.60;99.90;;;;;;5054394;28;20048;-80
2023/04/17 09:21:15;;;;;;;34.13;18.50;;;8.70;99.90;;;;;;5031779;28;20033;-80
2023/04/17 09:23:50;;;;;;;33.40;18.80;;;8.70;99.90;;;;;;5052084;28;20082;-82
2023/04/17 09:26:19;;;;;;;30.60;17.70;;;8.70;99.90;;;;;;5052751;28;20123;-80
2023/04/17 09:29:07;;;;;;;29.75;17.25;;;8.80;99.90;;;;;;5058827;28;20024;-79
2023/04/17 09:31:33;;;;;;;27.83;16.92;;;8.90;99.90;;;;;;5067253;28;20020;-80
2023/04/17 09:34:10;;;;;;;27.75;16.23;;;9.00;99.90;;;;;;5063294;28;20051;-80
2023/04/17 09:36:38;;;;;;;30.83;17.00;;;9.10;99.90;;;;;;5045568;28;20264;-80
2023/04/17 09:39:15;;;;;;;26.40;15.75;;;9.10;99.90;;;;;;5050273;28;20063;-79
2023/04/17 09:41:40;;;;;;;25.33;15.95;;;9.20;99.90;;;;;;5051772;28;20025;-80
2023/04/17 09:44:06;;;;;;;39.40;16.65;;;9.20;99.90;;;;;;5055215;28;20474;-79
2023/04/17 09:46:40;;;;;;;30.15;17.55;;;9.20;99.90;;;;;;5041303;28;20028;-79
2023/04/17 09:49:32;;;;;;;29.77;17.30;;;9.30;99.90;;;;;;5053277;28;20037;-79
2023/04/17 09:51:59;;;;;;;29.70;15.88;;;9.40;99.90;;;;;;5049908;28;20033;-79
2023/04/17 09:54:25;;;;;;;27.90;13.75;;;9.40;99.90;;;;;;5052995;28;20027;-79
2023/04/17 09:56:54;;;;;;;24.73;13.45;;;9.50;99.90;;;;;;5045023;28;20045;-79
2023/04/17 09:59:22;;;;;;;23.45;13.63;;;9.60;99.90;;;;;;5047459;28;20024;-79
2023/04/17 10:01:49;;;;;;;24.38;14.10;;;9.60;99.90;;;;;;5040038;28;20033;-82
2023/04/17 10:04:14;;;;;;;32.03;14.73;;;9.60;99.90;;;;;;5055966;28;20140;-80
2023/04/17 10:06:40;;;;;;;32.35;14.52;;;9.70;99.90;;;;;;5048045;28;20120;-79
2023/04/17 10:09:07;;;;;;;21.27;13.68;;;9.70;99.90;;;;;;5056272;28;20036;-79
2023/04/17 10:11:40;;;;;;;24.45;15.82;;;9.80;99.90;;;;;;5063550;28;20404;-79
2023/04/17 10:14:11;;;;;;;25.92;14.70;;;9.90;99.90;;;;;;5066001;28;20059;-79
2023/04/17 10:16:39;;;;;;;23.65;14.52;;;10.00;99.90;;;;;;5059227;28;20044;-79
2023/04/17 10:19:22;;;;;;;30.02;14.30;;;10.00;99.90;;;;;;5053348;28;20433;-79
2023/04/17 10:22:14;;;;;;;33.88;16.75;;;10.10;99.90;;;;;;5046523;28;20104;-79
2023/04/17 10:24:40;;;;;;;29.52;14.75;;;10.10;99.90;;;;;;5054981;28;20029;-79
2023/04/17 10:27:27;;;;;;;29.58;15.68;;;10.20;99.90;;;;;;5047370;28;20029;-79
2023/04/17 10:29:55;;;;;;;25.25;14.18;;;10.20;99.90;;;;;;5043306;28;20044;-79
2023/04/17 10:32:27;;;;;;;26.65;15.25;;;10.30;99.90;;;;;;5040361;28;20025;-80
2023/04/17 10:35:00;;;;;;;28.40;15.48;;;10.30;99.90;;;;;;5062384;28;20066;-79
2023/04/17 10:37:47;;;;;;;23.17;14.45;;;10.30;99.90;;;;;;5053241;28;20493;-80
2023/04/17 10:43:39;;;;;;;24.02;13.30;;;10.20;99.90;;;;;;5049004;28;20032;-79
2023/04/17 10:46:12;;;;;;;28.42;14.50;;;10.10;99.90;;;;;;5048803;28;20025;-83
2023/04/17 10:48:45;;;;;;;29.73;12.82;;;10.10;99.90;;;;;;5051201;28;20024;-80
2023/04/17 10:51:22;;;;;;;21.55;11.88;;;10.10;99.90;;;;;;5048260;28;20119;-82
2023/04/17 10:53:58;;;;;;;21.95;12.15;;;10.10;99.90;;;;;;5034399;28;20095;-78
2023/04/17 10:56:37;;;;;;;23.08;11.93;;;10.20;99.90;;;;;;5040869;28;20059;-79
2023/04/17 10:59:17;;;;;;;20.98;10.98;;;10.20;99.90;;;;;;5048077;28;20501;-80
2023/04/17 11:01:49;;;;;;;31.15;12.18;;;10.20;99.90;;;;;;5044145;28;20052;-78
2023/04/17 11:04:27;;;;;;;21.67;11.02;;;10.30;99.90;;;;;;5054904;28;20029;-79
2023/04/17 11:06:54;;;;;;;17.05;9.48;;;10.30;99.90;;;;;;5049757;28;20072;-79
2023/04/17 11:09:21;;;;;;;18.67;9.50;;;10.40;99.90;;;;;;5063516;28;20029;-79
2023/04/17 11:11:47;;;;;;;18.88;10.88;;;10.40;99.90;;;;;;5053878;28;20071;-80
2023/04/17 11:14:14;;;;;;;22.83;9.93;;;10.50;99.90;;;;;;5050697;28;20460;-79
2023/04/17 11:16:42;;;;;;;19.33;10.18;;;10.60;99.90;;;;;;5047661;28;20043;-79
2023/04/17 11:19:15;;;;;;;19.65;9.73;;;10.60;99.90;;;;;;5052909;28;20383;-81
2023/04/17 11:21:42;;;;;;;26.65;10.68;;;10.60;99.90;;;;;;5054142;28;20052;-78
2023/04/17 11:24:10;;;;;;;17.52;9.75;;;10.60;99.90;;;;;;5044615;28;20041;-82
2023/04/17 11:26:46;;;;;;;22.67;10.38;;;10.60;99.90;;;;;;5044760;28;20473;-79
2023/04/17 11:29:20;;;;;;;19.77;10.30;;;10.60;99.90;;;;;;5044553;28;20027;-79
2023/04/17 11:31:47;;;;;;;20.00;10.93;;;10.70;99.90;;;;;;5049500;28;20036;-79
2023/04/17 11:34:14;;;;;;;21.55;9.50;;;10.70;99.90;;;;;;5049823;28;20482;-78
2023/04/17 11:36:52;;;;;;;21.15;10.60;;;10.80;99.90;;;;;;5055043;28;20558;-78
2023/04/17 11:39:19;;;;;;;17.77;9.73;;;10.80;99.90;;;;;;5053871;28;20048;-80
2023/04/17 11:41:46;;;;;;;27.52;11.70;;;10.80;99.90;;;;;;5051180;28;20120;-78
2023/04/17 11:44:13;;;;;;;19.25;10.85;;;11.00;99.90;;;;;;5051410;28;20115;-79
2023/04/17 11:46:39;;;;;;;21.13;10.45;;;11.10;99.90;;;;;;5060935;28;20021;-79
2023/04/17 11:49:05;;;;;;;21.20;10.55;;;11.10;99.90;;;;;;5041570;28;20033;-81
2023/04/17 11:51:31;;;;;;;14.77;9.90;;;11.10;99.90;;;;;;5055413;28;20063;-79
2023/04/17 11:53:58;;;;;;;20.08;11.40;;;11.20;99.90;;;;;;5057931;28;20059;-79
2023/04/17 11:56:27;;;;;;;21.73;10.27;;;11.20;99.90;;;;;;5047474;28;20036;-81
2023/04/17 11:58:53;;;;;;;23.95;11.50;;;11.20;99.90;;;;;;5041129;28;20032;-81
2023/04/17 12:01:23;;;;;;;18.90;11.05;;;11.20;99.90;;;;;;5047048;28;20031;-80
2023/04/17 12:03:49;;;;;;;23.10;11.57;;;11.10;99.90;;;;;;5054970;28;20032;-78
2023/04/17 12:06:15;;;;;;;28.58;10.93;;;11.10;99.90;;;;;;5049827;28;20440;-81
2023/04/17 12:08:44;;;;;;;21.98;11.57;;;11.10;99.90;;;;;;5050654;28;20112;-79
2023/04/17 12:11:23;;;;;;;17.92;10.07;;;11.00;99.90;;;;;;5035150;28;20041;-80
2023/04/17 12:13:50;;;;;;;25.48;12.00;;;10.90;99.90;;;;;;5058368;28;20017;-79
2023/04/17 12:16:16;;;;;;;16.55;10.88;;;10.90;99.90;;;;;;5053527;28;20112;-82
2023/04/17 12:18:56;;;;;;;22.70;10.57;;;10.90;99.90;;;;;;5032925;28;20614;-79
2023/04/17 12:21:25;;;;;;;23.52;12.00;;;10.80;99.90;;;;;;5032792;28;20115;-79
2023/04/17 12:23:50;;;;;;;21.25;10.63;;;10.80;99.90;;;;;;5041609;28;20040;-79
2023/04/17 12:26:16;;;;;;;21.23;9.60;;;10.80;99.90;;;;;;5045870;28;20025;-79
2023/04/17 12:28:42;;;;;;;25.55;10.60;;;10.80;99.90;;;;;;5048917;28;20391;-79
2023/04/17 12:31:07;;;;;;;29.50;11.10;;;10.80;99.90;;;;;;5049316;28;20155;-81
2023/04/17 12:33:33;;;;;;;25.70;11.20;;;10.80;99.90;;;;;;5043040;28;20037;-79
2023/04/17 12:36:02;;;;;;;22.90;12.98;;;10.90;99.90;;;;;;5053752;28;20064;-79
2023/04/17 12:38:28;;;;;;;24.88;13.25;;;10.90;99.90;;;;;;5038903;28;20340;-79
2023/04/17 12:40:53;;;;;;;20.95;11.20;;;10.90;99.90;;;;;;5042892;28;20036;-80